This is the latest recevied weather packets stored in our database for station/object LRCV. If no packets are shown the sender has not sent any weather packets the latest 10 day(s).
| Time | Temp. | Humidity | Pressure | Rain* | Wind** | Luminosity | Snow |
|---|---|---|---|---|---|---|---|
| 1777206819 | 25° C | 21% | 1010 hPa | - | - | - | - |
| 1777205022 | 25° C | 19% | 1011 hPa | - | - | - | - |
| 1777204116 | 25° C | 24% | 1011 hPa | - | - | - | - |
| 1777203280 | 25° C | 24% | 1011 hPa | - | - | - | - |
| 1777201415 | 25° C | 22% | 1011 hPa | - | - | - | - |
| 1777199622 | 23.89° C | 29% | 1011 hPa | - | - | - | - |
| 1777198712 | 25° C | 30% | 1011 hPa | - | - | - | - |
| 1777197818 | 25° C | 30% | 1011 hPa | - | - | - | - |
| 1777196919 | 22.78° C | 31% | 1011 hPa | - | - | - | - |
| 1777196018 | 22.78° C | 31% | 1011 hPa | - | - | - | - |
| 1777195122 | 22.78° C | 33% | 1012 hPa | - | - | - | - |
| 1777194223 | 22.78° C | 33% | 1012 hPa | - | - | - | - |
| 1777193316 | 22.22° C | 38% | 1012 hPa | - | - | - | - |
| 1777192422 | 22.22° C | 38% | 1012 hPa | - | - | - | - |
| 1777191528 | 20° C | 43% | 1012 hPa | - | - | - | - |
| 1777190622 | 20° C | 43% | 1012 hPa | - | - | - | - |
| 1777189715 | 17.78° C | 49% | 1012 hPa | - | - | - | - |
| 1777188818 | 17.78° C | 49% | 1012 hPa | - | - | - | - |
| 1777187919 | 16.11° C | 55% | 1012 hPa | - | - | - | - |
| 1777187022 | 16.11° C | 55% | 1012 hPa | - | - | - | - |
| 1777186118 | 15° C | 55% | 1012 hPa | - | - | - | - |
| 1777185222 | 15° C | 55% | 1012 hPa | - | - | - | - |
| 1777184322 | 13.89° C | 59% | 1012 hPa | - | - | - | - |
| 1777183422 | 13.89° C | 59% | 1012 hPa | - | - | - | - |
| 1777182522 | 12.22° C | 67% | 1012 hPa | - | - | - | - |
* Rain since midnight (hover to see other rain measurements)
** Current wind speed in m/s (hover to see current wind gust speed)